sensor_id;sensor_type;location;lat;lon;timestamp;temperature;humidity
7846;DHT22;3968;51.424;6.788;2023-07-31T00:00:24;17.50;99.90
7846;DHT22;3968;51.424;6.788;2023-07-31T00:02:50;17.50;99.90
7846;DHT22;3968;51.424;6.788;2023-07-31T00:05:16;17.40;99.90
7846;DHT22;3968;51.424;6.788;2023-07-31T00:07:42;17.50;99.90
7846;DHT22;3968;51.424;6.788;2023-07-31T00:10:07;17.40;99.90
7846;DHT22;3968;51.424;6.788;2023-07-31T00:12:33;17.50;99.90
7846;DHT22;3968;51.424;6.788;2023-07-31T00:14:59;17.50;99.90
7846;DHT22;3968;51.424;6.788;2023-07-31T00:17:24;17.40;99.90
7846;DHT22;3968;51.424;6.788;2023-07-31T00:19:50;17.40;99.90
7846;DHT22;3968;51.424;6.788;2023-07-31T00:22:16;17.40;99.90
7846;DHT22;3968;51.424;6.788;2023-07-31T00:24:41;17.40;99.90
7846;DHT22;3968;51.424;6.788;2023-07-31T00:27:07;17.40;99.90
7846;DHT22;3968;51.424;6.788;2023-07-31T00:29:32;17.40;99.90
7846;DHT22;3968;51.424;6.788;2023-07-31T00:31:58;17.40;99.90
7846;DHT22;3968;51.424;6.788;2023-07-31T00:34:24;17.40;99.90
7846;DHT22;3968;51.424;6.788;2023-07-31T00:36:49;17.40;99.90
7846;DHT22;3968;51.424;6.788;2023-07-31T00:39:15;17.30;99.90
7846;DHT22;3968;51.424;6.788;2023-07-31T00:41:40;17.40;99.90
7846;DHT22;3968;51.424;6.788;2023-07-31T00:44:06;17.30;99.90
7846;DHT22;3968;51.424;6.788;2023-07-31T00:46:31;17.30;99.90
7846;DHT22;3968;51.424;6.788;2023-07-31T00:48:57;17.40;99.90
7846;DHT22;3968;51.424;6.788;2023-07-31T00:51:23;17.30;99.90
7846;DHT22;3968;51.424;6.788;2023-07-31T00:53:49;17.30;99.90
7846;DHT22;3968;51.424;6.788;2023-07-31T00:56:15;17.20;99.90
7846;DHT22;3968;51.424;6.788;2023-07-31T00:58:41;17.30;99.90
7846;DHT22;3968;51.424;6.788;2023-07-31T01:01:06;17.30;99.90
7846;DHT22;3968;51.424;6.788;2023-07-31T01:03:32;17.30;99.90
7846;DHT22;3968;51.424;6.788;2023-07-31T01:08:36;17.20;99.90
7846;DHT22;3968;51.424;6.788;2023-07-31T01:11:11;17.30;99.90
7846;DHT22;3968;51.424;6.788;2023-07-31T01:13:40;17.20;99.90
7846;DHT22;3968;51.424;6.788;2023-07-31T01:16:06;17.30;99.90
7846;DHT22;3968;51.424;6.788;2023-07-31T01:18:31;17.30;99.90
7846;DHT22;3968;51.424;6.788;2023-07-31T01:21:14;17.20;99.90
7846;DHT22;3968;51.424;6.788;2023-07-31T01:26:24;17.30;99.90
7846;DHT22;3968;51.424;6.788;2023-07-31T01:31:46;17.30;99.90
7846;DHT22;3968;51.424;6.788;2023-07-31T01:34:14;17.30;99.90
7846;DHT22;3968;51.424;6.788;2023-07-31T01:36:43;17.40;99.90
7846;DHT22;3968;51.424;6.788;2023-07-31T01:39:09;17.30;99.90
7846;DHT22;3968;51.424;6.788;2023-07-31T01:41:34;17.30;99.90
7846;DHT22;3968;51.424;6.788;2023-07-31T01:44:00;17.30;99.90
7846;DHT22;3968;51.424;6.788;2023-07-31T01:46:25;17.30;99.90
7846;DHT22;3968;51.424;6.788;2023-07-31T01:48:51;17.40;99.90
7846;DHT22;3968;51.424;6.788;2023-07-31T01:51:17;17.30;99.90
7846;DHT22;3968;51.424;6.788;2023-07-31T01:53:42;17.20;99.90
7846;DHT22;3968;51.424;6.788;2023-07-31T01:56:08;17.30;99.90
7846;DHT22;3968;51.424;6.788;2023-07-31T01:58:33;17.30;99.90
7846;DHT22;3968;51.424;6.788;2023-07-31T02:00:59;17.20;99.90
7846;DHT22;3968;51.424;6.788;2023-07-31T02:03:25;17.30;99.90
7846;DHT22;3968;51.424;6.788;2023-07-31T02:05:50;17.20;99.90
7846;DHT22;3968;51.424;6.788;2023-07-31T02:08:16;17.20;99.90
7846;DHT22;3968;51.424;6.788;2023-07-31T02:10:42;17.30;99.90
7846;DHT22;3968;51.424;6.788;2023-07-31T02:13:08;17.20;99.90
7846;DHT22;3968;51.424;6.788;2023-07-31T02:15:33;17.30;99.90
7846;DHT22;3968;51.424;6.788;2023-07-31T02:17:59;17.20;99.90
7846;DHT22;3968;51.424;6.788;2023-07-31T02:20:25;17.30;99.90
7846;DHT22;3968;51.424;6.788;2023-07-31T02:22:51;17.20;99.90
7846;DHT22;3968;51.424;6.788;2023-07-31T02:25:16;17.20;99.90
7846;DHT22;3968;51.424;6.788;2023-07-31T02:27:42;17.30;99.90
7846;DHT22;3968;51.424;6.788;2023-07-31T02:30:08;17.20;99.90
7846;DHT22;3968;51.424;6.788;2023-07-31T02:32:34;17.30;99.90
7846;DHT22;3968;51.424;6.788;2023-07-31T02:35:00;17.20;99.90
7846;DHT22;3968;51.424;6.788;2023-07-31T02:37:25;17.30;99.90
7846;DHT22;3968;51.424;6.788;2023-07-31T02:39:51;17.30;99.90
7846;DHT22;3968;51.424;6.788;2023-07-31T02:42:17;17.20;99.90
7846;DHT22;3968;51.424;6.788;2023-07-31T02:44:42;17.20;99.90
7846;DHT22;3968;51.424;6.788;2023-07-31T02:47:08;17.20;99.90
7846;DHT22;3968;51.424;6.788;2023-07-31T02:49:33;17.20;99.90
7846;DHT22;3968;51.424;6.788;2023-07-31T02:51:59;17.20;99.90
7846;DHT22;3968;51.424;6.788;2023-07-31T02:54:25;17.20;99.90
7846;DHT22;3968;51.424;6.788;2023-07-31T02:56:50;17.20;99.90
7846;DHT22;3968;51.424;6.788;2023-07-31T02:59:17;17.20;99.90
7846;DHT22;3968;51.424;6.788;2023-07-31T03:01:43;17.20;99.90
7846;DHT22;3968;51.424;6.788;2023-07-31T03:04:08;17.20;99.90
7846;DHT22;3968;51.424;6.788;2023-07-31T03:06:34;17.20;99.90
7846;DHT22;3968;51.424;6.788;2023-07-31T03:08:59;17.30;99.90
7846;DHT22;3968;51.424;6.788;2023-07-31T03:11:25;17.20;99.90
7846;DHT22;3968;51.424;6.788;2023-07-31T03:13:51;17.20;99.90
7846;DHT22;3968;51.424;6.788;2023-07-31T03:16:16;17.30;99.90
7846;DHT22;3968;51.424;6.788;2023-07-31T03:18:42;17.30;99.90
7846;DHT22;3968;51.424;6.788;2023-07-31T03:21:07;17.30;99.90
7846;DHT22;3968;51.424;6.788;2023-07-31T03:23:33;17.20;99.90
7846;DHT22;3968;51.424;6.788;2023-07-31T03:26:00;17.30;99.90
7846;DHT22;3968;51.424;6.788;2023-07-31T03:28:26;17.30;99.90
7846;DHT22;3968;51.424;6.788;2023-07-31T03:30:52;17.30;99.90
7846;DHT22;3968;51.424;6.788;2023-07-31T03:33:18;17.30;99.90
7846;DHT22;3968;51.424;6.788;2023-07-31T03:35:44;17.30;99.90
7846;DHT22;3968;51.424;6.788;2023-07-31T03:38:10;17.30;99.90
7846;DHT22;3968;51.424;6.788;2023-07-31T03:40:36;17.30;99.90
7846;DHT22;3968;51.424;6.788;2023-07-31T03:43:01;17.40;99.90
7846;DHT22;3968;51.424;6.788;2023-07-31T03:45:27;17.30;99.90
7846;DHT22;3968;51.424;6.788;2023-07-31T03:47:53;17.30;99.90
7846;DHT22;3968;51.424;6.788;2023-07-31T03:50:20;17.40;99.90
7846;DHT22;3968;51.424;6.788;2023-07-31T03:52:45;17.40;99.90
7846;DHT22;3968;51.424;6.788;2023-07-31T03:55:11;17.30;99.90
7846;DHT22;3968;51.424;6.788;2023-07-31T03:57:36;17.40;99.90
7846;DHT22;3968;51.424;6.788;2023-07-31T04:00:02;17.40;99.90
7846;DHT22;3968;51.424;6.788;2023-07-31T04:02:29;17.40;99.90
7846;DHT22;3968;51.424;6.788;2023-07-31T04:04:54;17.40;99.90
7846;DHT22;3968;51.424;6.788;2023-07-31T04:07:20;17.40;99.90
7846;DHT22;3968;51.424;6.788;2023-07-31T04:09:45;17.40;99.90
7846;DHT22;3968;51.424;6.788;2023-07-31T04:12:11;17.40;99.90
7846;DHT22;3968;51.424;6.788;2023-07-31T04:14:37;17.40;99.90
7846;DHT22;3968;51.424;6.788;2023-07-31T04:17:02;17.40;99.90
7846;DHT22;3968;51.424;6.788;2023-07-31T04:19:28;17.40;99.90
7846;DHT22;3968;51.424;6.788;2023-07-31T04:21:53;17.40;99.90
7846;DHT22;3968;51.424;6.788;2023-07-31T04:24:19;17.50;99.90
7846;DHT22;3968;51.424;6.788;2023-07-31T04:26:53;17.50;99.90
7846;DHT22;3968;51.424;6.788;2023-07-31T04:29:19;17.50;99.90
7846;DHT22;3968;51.424;6.788;2023-07-31T04:31:44;17.50;99.90
7846;DHT22;3968;51.424;6.788;2023-07-31T04:34:10;17.50;99.90
7846;DHT22;3968;51.424;6.788;2023-07-31T04:36:37;17.50;99.90
7846;DHT22;3968;51.424;6.788;2023-07-31T04:39:03;17.60;99.90
7846;DHT22;3968;51.424;6.788;2023-07-31T04:41:28;17.60;99.90
7846;DHT22;3968;51.424;6.788;2023-07-31T04:43:54;17.60;99.90
7846;DHT22;3968;51.424;6.788;2023-07-31T04:46:20;17.60;99.90
7846;DHT22;3968;51.424;6.788;2023-07-31T04:48:45;17.60;99.90
7846;DHT22;3968;51.424;6.788;2023-07-31T04:51:11;17.60;99.90
7846;DHT22;3968;51.424;6.788;2023-07-31T04:53:36;17.60;99.90
7846;DHT22;3968;51.424;6.788;2023-07-31T04:56:02;17.60;99.90
7846;DHT22;3968;51.424;6.788;2023-07-31T04:58:28;17.70;99.90
7846;DHT22;3968;51.424;6.788;2023-07-31T05:00:53;17.70;99.90
7846;DHT22;3968;51.424;6.788;2023-07-31T05:03:19;17.70;99.90
7846;DHT22;3968;51.424;6.788;2023-07-31T05:05:44;17.70;99.90
7846;DHT22;3968;51.424;6.788;2023-07-31T05:08:10;17.70;99.90
7846;DHT22;3968;51.424;6.788;2023-07-31T05:10:36;17.70;99.90
7846;DHT22;3968;51.424;6.788;2023-07-31T05:13:01;17.70;99.90
7846;DHT22;3968;51.424;6.788;2023-07-31T05:15:27;17.70;99.90
7846;DHT22;3968;51.424;6.788;2023-07-31T05:17:53;17.70;99.90
7846;DHT22;3968;51.424;6.788;2023-07-31T05:20:19;17.70;99.90
7846;DHT22;3968;51.424;6.788;2023-07-31T05:22:44;17.70;99.90
7846;DHT22;3968;51.424;6.788;2023-07-31T05:25:10;17.70;99.90
7846;DHT22;3968;51.424;6.788;2023-07-31T05:27:35;17.70;99.90
7846;DHT22;3968;51.424;6.788;2023-07-31T05:30:01;17.80;99.90
7846;DHT22;3968;51.424;6.788;2023-07-31T05:32:27;17.70;99.90
7846;DHT22;3968;51.424;6.788;2023-07-31T05:34:53;17.80;99.90
7846;DHT22;3968;51.424;6.788;2023-07-31T05:37:19;17.70;99.90
7846;DHT22;3968;51.424;6.788;2023-07-31T05:39:44;17.70;99.90
7846;DHT22;3968;51.424;6.788;2023-07-31T05:42:10;17.80;99.90
7846;DHT22;3968;51.424;6.788;2023-07-31T05:44:36;17.80;99.90
7846;DHT22;3968;51.424;6.788;2023-07-31T05:47:01;17.80;99.90
7846;DHT22;3968;51.424;6.788;2023-07-31T05:49:27;17.80;99.90
7846;DHT22;3968;51.424;6.788;2023-07-31T05:51:52;17.80;99.90
7846;DHT22;3968;51.424;6.788;2023-07-31T05:54:18;17.80;99.90
7846;DHT22;3968;51.424;6.788;2023-07-31T05:56:44;17.80;99.90
7846;DHT22;3968;51.424;6.788;2023-07-31T05:59:12;17.80;99.90
7846;DHT22;3968;51.424;6.788;2023-07-31T06:01:37;17.80;99.90
7846;DHT22;3968;51.424;6.788;2023-07-31T06:04:03;17.90;99.90
7846;DHT22;3968;51.424;6.788;2023-07-31T06:06:29;17.90;99.90
7846;DHT22;3968;51.424;6.788;2023-07-31T06:08:54;17.90;99.90
7846;DHT22;3968;51.424;6.788;2023-07-31T06:11:21;18.00;99.90
7846;DHT22;3968;51.424;6.788;2023-07-31T06:13:47;17.90;99.90
7846;DHT22;3968;51.424;6.788;2023-07-31T06:16:14;17.90;99.90
7846;DHT22;3968;51.424;6.788;2023-07-31T06:18:40;17.90;99.90
7846;DHT22;3968;51.424;6.788;2023-07-31T06:21:05;17.90;99.90
7846;DHT22;3968;51.424;6.788;2023-07-31T06:23:31;17.90;99.90
7846;DHT22;3968;51.424;6.788;2023-07-31T06:25:57;17.90;99.90
7846;DHT22;3968;51.424;6.788;2023-07-31T06:28:30;17.90;99.90
7846;DHT22;3968;51.424;6.788;2023-07-31T06:30:57;17.90;99.90
7846;DHT22;3968;51.424;6.788;2023-07-31T06:33:23;17.90;99.90
7846;DHT22;3968;51.424;6.788;2023-07-31T06:35:49;17.90;99.90
7846;DHT22;3968;51.424;6.788;2023-07-31T06:38:15;17.90;99.90
7846;DHT22;3968;51.424;6.788;2023-07-31T06:40:40;17.90;99.90
7846;DHT22;3968;51.424;6.788;2023-07-31T06:43:06;17.90;99.90
7846;DHT22;3968;51.424;6.788;2023-07-31T06:45:36;17.90;99.90
7846;DHT22;3968;51.424;6.788;2023-07-31T06:48:03;17.90;99.90
7846;DHT22;3968;51.424;6.788;2023-07-31T06:50:30;17.90;99.90
7846;DHT22;3968;51.424;6.788;2023-07-31T06:52:55;17.90;99.90
7846;DHT22;3968;51.424;6.788;2023-07-31T06:55:21;17.90;99.90
7846;DHT22;3968;51.424;6.788;2023-07-31T06:57:52;17.90;99.90
7846;DHT22;3968;51.424;6.788;2023-07-31T07:00:19;17.90;99.90
7846;DHT22;3968;51.424;6.788;2023-07-31T07:02:45;17.90;99.90
7846;DHT22;3968;51.424;6.788;2023-07-31T07:05:13;17.90;99.90
7846;DHT22;3968;51.424;6.788;2023-07-31T07:07:38;17.90;99.90
7846;DHT22;3968;51.424;6.788;2023-07-31T07:10:04;17.90;99.90
7846;DHT22;3968;51.424;6.788;2023-07-31T07:12:31;17.90;99.90
7846;DHT22;3968;51.424;6.788;2023-07-31T07:14:57;17.90;99.90
7846;DHT22;3968;51.424;6.788;2023-07-31T07:17:23;17.80;99.90
7846;DHT22;3968;51.424;6.788;2023-07-31T07:19:49;17.90;99.90
7846;DHT22;3968;51.424;6.788;2023-07-31T07:22:15;17.90;99.90
7846;DHT22;3968;51.424;6.788;2023-07-31T07:24:40;18.00;99.90
7846;DHT22;3968;51.424;6.788;2023-07-31T07:27:06;17.90;99.90
7846;DHT22;3968;51.424;6.788;2023-07-31T07:29:33;18.00;99.90
7846;DHT22;3968;51.424;6.788;2023-07-31T07:31:59;18.00;99.90
7846;DHT22;3968;51.424;6.788;2023-07-31T07:34:28;17.90;99.90
7846;DHT22;3968;51.424;6.788;2023-07-31T07:36:54;17.90;99.90
7846;DHT22;3968;51.424;6.788;2023-07-31T07:39:20;17.90;99.90
7846;DHT22;3968;51.424;6.788;2023-07-31T07:41:46;17.90;99.90
7846;DHT22;3968;51.424;6.788;2023-07-31T07:44:13;17.90;99.90
7846;DHT22;3968;51.424;6.788;2023-07-31T07:46:39;17.90;99.90
7846;DHT22;3968;51.424;6.788;2023-07-31T07:49:04;17.90;99.90
7846;DHT22;3968;51.424;6.788;2023-07-31T07:51:30;17.90;99.90
7846;DHT22;3968;51.424;6.788;2023-07-31T07:53:57;17.90;99.90
7846;DHT22;3968;51.424;6.788;2023-07-31T07:56:23;17.90;99.90
7846;DHT22;3968;51.424;6.788;2023-07-31T07:58:50;17.90;99.90
7846;DHT22;3968;51.424;6.788;2023-07-31T08:01:16;17.90;99.90
7846;DHT22;3968;51.424;6.788;2023-07-31T08:03:41;17.90;99.90
7846;DHT22;3968;51.424;6.788;2023-07-31T08:06:07;17.90;99.90
7846;DHT22;3968;51.424;6.788;2023-07-31T08:08:35;17.90;99.90
7846;DHT22;3968;51.424;6.788;2023-07-31T08:11:00;18.10;99.90
7846;DHT22;3968;51.424;6.788;2023-07-31T08:13:26;18.10;99.90
7846;DHT22;3968;51.424;6.788;2023-07-31T08:15:52;18.10;99.90
7846;DHT22;3968;51.424;6.788;2023-07-31T08:18:18;18.10;99.90
7846;DHT22;3968;51.424;6.788;2023-07-31T08:20:44;18.10;99.90
7846;DHT22;3968;51.424;6.788;2023-07-31T08:23:10;18.10;99.90
7846;DHT22;3968;51.424;6.788;2023-07-31T08:25:36;18.00;99.90
7846;DHT22;3968;51.424;6.788;2023-07-31T08:28:03;18.00;99.90
7846;DHT22;3968;51.424;6.788;2023-07-31T08:30:28;18.00;99.90
7846;DHT22;3968;51.424;6.788;2023-07-31T08:32:54;17.90;99.90
7846;DHT22;3968;51.424;6.788;2023-07-31T08:35:20;17.90;99.90
7846;DHT22;3968;51.424;6.788;2023-07-31T08:37:45;17.90;99.90
7846;DHT22;3968;51.424;6.788;2023-07-31T08:40:11;17.80;99.90
7846;DHT22;3968;51.424;6.788;2023-07-31T08:42:46;17.90;99.90
7846;DHT22;3968;51.424;6.788;2023-07-31T08:45:18;17.80;99.90
7846;DHT22;3968;51.424;6.788;2023-07-31T08:47:45;17.90;99.90
7846;DHT22;3968;51.424;6.788;2023-07-31T08:50:16;17.90;99.90
7846;DHT22;3968;51.424;6.788;2023-07-31T08:52:41;18.00;99.90
7846;DHT22;3968;51.424;6.788;2023-07-31T08:55:08;18.00;99.90
7846;DHT22;3968;51.424;6.788;2023-07-31T08:57:35;18.10;99.90
7846;DHT22;3968;51.424;6.788;2023-07-31T09:00:03;18.10;99.90
7846;DHT22;3968;51.424;6.788;2023-07-31T09:02:37;18.20;99.90
7846;DHT22;3968;51.424;6.788;2023-07-31T09:05:08;18.20;99.90
7846;DHT22;3968;51.424;6.788;2023-07-31T09:07:35;18.10;99.90
7846;DHT22;3968;51.424;6.788;2023-07-31T09:10:02;18.20;99.90
7846;DHT22;3968;51.424;6.788;2023-07-31T09:12:28;18.20;99.90
7846;DHT22;3968;51.424;6.788;2023-07-31T09:14:54;18.10;99.90
7846;DHT22;3968;51.424;6.788;2023-07-31T09:17:33;18.10;99.90
7846;DHT22;3968;51.424;6.788;2023-07-31T09:20:16;18.10;99.90
7846;DHT22;3968;51.424;6.788;2023-07-31T09:22:42;18.10;99.90
7846;DHT22;3968;51.424;6.788;2023-07-31T09:25:25;18.20;99.90
7846;DHT22;3968;51.424;6.788;2023-07-31T09:30:20;18.10;99.90
7846;DHT22;3968;51.424;6.788;2023-07-31T09:32:49;18.10;99.90
7846;DHT22;3968;51.424;6.788;2023-07-31T09:35:31;18.10;99.90
7846;DHT22;3968;51.424;6.788;2023-07-31T09:37:59;18.20;99.90
7846;DHT22;3968;51.424;6.788;2023-07-31T09:40:33;18.10;99.90
7846;DHT22;3968;51.424;6.788;2023-07-31T09:43:01;18.10;99.90
7846;DHT22;3968;51.424;6.788;2023-07-31T09:45:27;18.20;99.90
7846;DHT22;3968;51.424;6.788;2023-07-31T09:47:53;18.20;99.90
7846;DHT22;3968;51.424;6.788;2023-07-31T09:50:21;18.30;99.90
7846;DHT22;3968;51.424;6.788;2023-07-31T09:52:47;18.30;99.90
7846;DHT22;3968;51.424;6.788;2023-07-31T09:55:13;18.30;99.90
7846;DHT22;3968;51.424;6.788;2023-07-31T09:57:45;18.30;99.90
7846;DHT22;3968;51.424;6.788;2023-07-31T10:00:13;18.30;99.90
7846;DHT22;3968;51.424;6.788;2023-07-31T10:02:39;18.30;99.90
7846;DHT22;3968;51.424;6.788;2023-07-31T10:05:06;18.30;99.90
7846;DHT22;3968;51.424;6.788;2023-07-31T10:07:39;18.30;99.90
7846;DHT22;3968;51.424;6.788;2023-07-31T10:10:07;18.30;99.90
7846;DHT22;3968;51.424;6.788;2023-07-31T10:12:34;18.30;99.90
7846;DHT22;3968;51.424;6.788;2023-07-31T10:15:01;18.30;99.90
7846;DHT22;3968;51.424;6.788;2023-07-31T10:17:27;18.30;99.90
7846;DHT22;3968;51.424;6.788;2023-07-31T10:19:54;18.30;99.90
7846;DHT22;3968;51.424;6.788;2023-07-31T10:22:21;18.30;99.90
7846;DHT22;3968;51.424;6.788;2023-07-31T10:24:48;18.30;99.90
7846;DHT22;3968;51.424;6.788;2023-07-31T10:27:14;18.30;99.90
7846;DHT22;3968;51.424;6.788;2023-07-31T10:29:41;18.30;99.90
7846;DHT22;3968;51.424;6.788;2023-07-31T10:32:09;18.20;99.90
7846;DHT22;3968;51.424;6.788;2023-07-31T10:34:39;18.30;99.90
7846;DHT22;3968;51.424;6.788;2023-07-31T10:37:35;18.30;99.90
7846;DHT22;3968;51.424;6.788;2023-07-31T10:40:17;18.40;99.90
7846;DHT22;3968;51.424;6.788;2023-07-31T10:42:53;18.60;99.90
7846;DHT22;3968;51.424;6.788;2023-07-31T10:45:32;18.70;99.90
7846;DHT22;3968;51.424;6.788;2023-07-31T10:51:21;18.70;99.90
7846;DHT22;3968;51.424;6.788;2023-07-31T10:53:48;18.80;99.90
7846;DHT22;3968;51.424;6.788;2023-07-31T10:56:13;18.80;99.90
7846;DHT22;3968;51.424;6.788;2023-07-31T10:58:44;18.80;99.90
7846;DHT22;3968;51.424;6.788;2023-07-31T11:01:11;18.80;99.90
7846;DHT22;3968;51.424;6.788;2023-07-31T11:03:44;18.90;99.90
7846;DHT22;3968;51.424;6.788;2023-07-31T11:06:09;18.90;99.90
7846;DHT22;3968;51.424;6.788;2023-07-31T11:11:11;18.90;99.90
7846;DHT22;3968;51.424;6.788;2023-07-31T11:16:16;18.90;99.90
7846;DHT22;3968;51.424;6.788;2023-07-31T11:18:45;19.00;99.90
7846;DHT22;3968;51.424;6.788;2023-07-31T11:21:19;19.00;99.90
7846;DHT22;3968;51.424;6.788;2023-07-31T11:23:49;19.10;99.90
7846;DHT22;3968;51.424;6.788;2023-07-31T11:26:16;19.10;99.90
7846;DHT22;3968;51.424;6.788;2023-07-31T11:28:42;19.10;99.90
7846;DHT22;3968;51.424;6.788;2023-07-31T11:31:11;19.10;99.90
7846;DHT22;3968;51.424;6.788;2023-07-31T11:33:36;19.20;99.90
7846;DHT22;3968;51.424;6.788;2023-07-31T11:36:02;19.20;99.90
7846;DHT22;3968;51.424;6.788;2023-07-31T11:38:34;19.20;99.90
7846;DHT22;3968;51.424;6.788;2023-07-31T11:41:02;19.20;99.90
7846;DHT22;3968;51.424;6.788;2023-07-31T11:43:28;19.20;99.90
7846;DHT22;3968;51.424;6.788;2023-07-31T11:45:56;19.20;99.90
7846;DHT22;3968;51.424;6.788;2023-07-31T11:48:30;19.10;99.90
7846;DHT22;3968;51.424;6.788;2023-07-31T11:51:00;19.10;99.90
7846;DHT22;3968;51.424;6.788;2023-07-31T11:55:51;19.10;99.90
7846;DHT22;3968;51.424;6.788;2023-07-31T11:58:18;19.00;99.90
7846;DHT22;3968;51.424;6.788;2023-07-31T12:00:44;19.00;99.90
7846;DHT22;3968;51.424;6.788;2023-07-31T12:03:11;19.10;99.90
7846;DHT22;3968;51.424;6.788;2023-07-31T12:05:37;19.00;99.90
7846;DHT22;3968;51.424;6.788;2023-07-31T12:08:09;18.90;99.90
7846;DHT22;3968;51.424;6.788;2023-07-31T12:10:38;18.90;99.90
7846;DHT22;3968;51.424;6.788;2023-07-31T12:13:11;18.80;99.90
7846;DHT22;3968;51.424;6.788;2023-07-31T12:15:45;18.70;99.90
7846;DHT22;3968;51.424;6.788;2023-07-31T12:18:13;18.70;99.90
7846;DHT22;3968;51.424;6.788;2023-07-31T12:20:44;18.70;99.90
7846;DHT22;3968;51.424;6.788;2023-07-31T12:23:21;18.70;99.90
7846;DHT22;3968;51.424;6.788;2023-07-31T12:26:11;18.80;99.90
7846;DHT22;3968;51.424;6.788;2023-07-31T12:28:47;18.90;99.90
7846;DHT22;3968;51.424;6.788;2023-07-31T12:31:21;19.00;99.90
7846;DHT22;3968;51.424;6.788;2023-07-31T12:33:49;19.10;99.90
7846;DHT22;3968;51.424;6.788;2023-07-31T12:36:24;19.30;99.90
7846;DHT22;3968;51.424;6.788;2023-07-31T12:38:51;19.30;99.90
7846;DHT22;3968;51.424;6.788;2023-07-31T12:41:17;19.30;99.90
7846;DHT22;3968;51.424;6.788;2023-07-31T12:43:44;19.30;99.90
7846;DHT22;3968;51.424;6.788;2023-07-31T12:46:10;19.20;99.90
7846;DHT22;3968;51.424;6.788;2023-07-31T12:48:37;19.20;99.90
7846;DHT22;3968;51.424;6.788;2023-07-31T12:51:04;19.10;99.90
7846;DHT22;3968;51.424;6.788;2023-07-31T12:53:30;19.10;99.90
7846;DHT22;3968;51.424;6.788;2023-07-31T12:55:56;19.10;99.90
7846;DHT22;3968;51.424;6.788;2023-07-31T12:58:22;19.10;99.90
7846;DHT22;3968;51.424;6.788;2023-07-31T13:00:48;19.10;99.90
7846;DHT22;3968;51.424;6.788;2023-07-31T13:03:13;19.10;99.90
7846;DHT22;3968;51.424;6.788;2023-07-31T13:05:39;19.30;99.90
7846;DHT22;3968;51.424;6.788;2023-07-31T13:08:05;19.30;99.90
7846;DHT22;3968;51.424;6.788;2023-07-31T13:10:31;19.40;99.90
7846;DHT22;3968;51.424;6.788;2023-07-31T13:12:56;19.50;99.90
7846;DHT22;3968;51.424;6.788;2023-07-31T13:15:22;19.60;99.90
7846;DHT22;3968;51.424;6.788;2023-07-31T13:17:48;19.80;99.90
7846;DHT22;3968;51.424;6.788;2023-07-31T13:20:14;19.80;99.90
7846;DHT22;3968;51.424;6.788;2023-07-31T13:22:39;19.80;99.90
7846;DHT22;3968;51.424;6.788;2023-07-31T13:25:06;19.80;99.90
7846;DHT22;3968;51.424;6.788;2023-07-31T13:27:32;19.80;99.90
7846;DHT22;3968;51.424;6.788;2023-07-31T13:29:57;19.80;99.90
7846;DHT22;3968;51.424;6.788;2023-07-31T13:32:23;19.70;99.90
7846;DHT22;3968;51.424;6.788;2023-07-31T13:34:49;19.70;99.90
7846;DHT22;3968;51.424;6.788;2023-07-31T13:37:15;19.70;99.90
7846;DHT22;3968;51.424;6.788;2023-07-31T13:39:41;19.60;99.90
7846;DHT22;3968;51.424;6.788;2023-07-31T13:42:08;19.60;99.90
7846;DHT22;3968;51.424;6.788;2023-07-31T13:44:37;19.50;99.90
7846;DHT22;3968;51.424;6.788;2023-07-31T13:47:03;19.50;99.90
7846;DHT22;3968;51.424;6.788;2023-07-31T13:49:29;19.50;99.90
7846;DHT22;3968;51.424;6.788;2023-07-31T13:51:55;19.50;99.90
7846;DHT22;3968;51.424;6.788;2023-07-31T13:54:23;19.50;99.90
7846;DHT22;3968;51.424;6.788;2023-07-31T13:56:48;19.50;99.90
7846;DHT22;3968;51.424;6.788;2023-07-31T13:59:14;19.60;99.90
7846;DHT22;3968;51.424;6.788;2023-07-31T14:01:41;19.60;99.90
7846;DHT22;3968;51.424;6.788;2023-07-31T14:04:07;19.80;99.90
7846;DHT22;3968;51.424;6.788;2023-07-31T14:06:32;19.90;99.90
7846;DHT22;3968;51.424;6.788;2023-07-31T14:08:58;19.90;99.90
7846;DHT22;3968;51.424;6.788;2023-07-31T14:11:24;20.00;99.90
7846;DHT22;3968;51.424;6.788;2023-07-31T14:13:50;20.00;99.90
7846;DHT22;3968;51.424;6.788;2023-07-31T14:16:16;20.00;99.90
7846;DHT22;3968;51.424;6.788;2023-07-31T14:18:42;20.00;99.90
7846;DHT22;3968;51.424;6.788;2023-07-31T14:21:08;19.90;99.90
7846;DHT22;3968;51.424;6.788;2023-07-31T14:23:34;19.90;99.90
7846;DHT22;3968;51.424;6.788;2023-07-31T14:26:00;19.80;99.90
7846;DHT22;3968;51.424;6.788;2023-07-31T14:28:25;19.70;99.90
7846;DHT22;3968;51.424;6.788;2023-07-31T14:30:51;19.70;99.90
7846;DHT22;3968;51.424;6.788;2023-07-31T14:33:17;19.60;99.90
7846;DHT22;3968;51.424;6.788;2023-07-31T14:35:42;19.60;99.90
7846;DHT22;3968;51.424;6.788;2023-07-31T14:38:08;19.60;99.90
7846;DHT22;3968;51.424;6.788;2023-07-31T14:40:34;19.50;99.90
7846;DHT22;3968;51.424;6.788;2023-07-31T14:43:00;19.50;99.90
7846;DHT22;3968;51.424;6.788;2023-07-31T14:45:25;19.50;99.90
7846;DHT22;3968;51.424;6.788;2023-07-31T14:47:51;19.40;99.90
7846;DHT22;3968;51.424;6.788;2023-07-31T14:50:16;19.50;99.90
7846;DHT22;3968;51.424;6.788;2023-07-31T14:52:42;19.40;99.90
7846;DHT22;3968;51.424;6.788;2023-07-31T14:55:08;19.40;99.90
7846;DHT22;3968;51.424;6.788;2023-07-31T14:57:34;19.40;99.90
7846;DHT22;3968;51.424;6.788;2023-07-31T15:00:00;19.30;99.90
7846;DHT22;3968;51.424;6.788;2023-07-31T15:02:26;19.20;99.90
7846;DHT22;3968;51.424;6.788;2023-07-31T15:04:52;19.20;99.90
7846;DHT22;3968;51.424;6.788;2023-07-31T15:07:18;19.20;99.90
7846;DHT22;3968;51.424;6.788;2023-07-31T15:09:44;19.20;99.90
7846;DHT22;3968;51.424;6.788;2023-07-31T15:12:09;19.20;99.90
7846;DHT22;3968;51.424;6.788;2023-07-31T15:14:38;19.20;99.90
7846;DHT22;3968;51.424;6.788;2023-07-31T15:17:04;19.10;99.90
7846;DHT22;3968;51.424;6.788;2023-07-31T15:19:30;19.10;99.90
7846;DHT22;3968;51.424;6.788;2023-07-31T15:22:00;19.10;99.90
7846;DHT22;3968;51.424;6.788;2023-07-31T15:24:25;19.10;99.90
7846;DHT22;3968;51.424;6.788;2023-07-31T15:26:51;19.10;99.90
7846;DHT22;3968;51.424;6.788;2023-07-31T15:29:17;19.10;99.90
7846;DHT22;3968;51.424;6.788;2023-07-31T15:31:45;19.10;99.90
7846;DHT22;3968;51.424;6.788;2023-07-31T15:34:12;19.10;99.90
7846;DHT22;3968;51.424;6.788;2023-07-31T15:36:37;19.10;99.90
7846;DHT22;3968;51.424;6.788;2023-07-31T15:39:03;19.10;99.90
7846;DHT22;3968;51.424;6.788;2023-07-31T15:41:28;19.20;99.90
7846;DHT22;3968;51.424;6.788;2023-07-31T15:43:55;19.20;99.90
7846;DHT22;3968;51.424;6.788;2023-07-31T15:46:20;19.20;99.90
7846;DHT22;3968;51.424;6.788;2023-07-31T15:48:46;19.30;99.90
7846;DHT22;3968;51.424;6.788;2023-07-31T15:51:12;19.30;99.90
7846;DHT22;3968;51.424;6.788;2023-07-31T15:53:37;19.20;99.90
7846;DHT22;3968;51.424;6.788;2023-07-31T15:56:03;19.20;99.90
7846;DHT22;3968;51.424;6.788;2023-07-31T15:58:29;19.20;99.90
7846;DHT22;3968;51.424;6.788;2023-07-31T16:00:54;19.20;99.90
7846;DHT22;3968;51.424;6.788;2023-07-31T16:03:20;19.20;99.90
7846;DHT22;3968;51.424;6.788;2023-07-31T16:05:47;19.20;99.90
7846;DHT22;3968;51.424;6.788;2023-07-31T16:08:13;19.10;99.90
7846;DHT22;3968;51.424;6.788;2023-07-31T16:10:39;19.10;99.90
7846;DHT22;3968;51.424;6.788;2023-07-31T16:13:05;19.10;99.90
7846;DHT22;3968;51.424;6.788;2023-07-31T16:15:30;19.00;99.90
7846;DHT22;3968;51.424;6.788;2023-07-31T16:17:56;19.00;99.90
7846;DHT22;3968;51.424;6.788;2023-07-31T16:20:22;18.90;99.90